createdAt,value
2023-01-13T00:00:06.888Z,1.75
2023-01-13T00:01:16.960Z,1.83
2023-01-13T00:02:19.486Z,1.65
2023-01-13T00:03:22.407Z,1.70
2023-01-13T00:04:24.744Z,2.00
2023-01-13T00:05:28.163Z,2.10
2023-01-13T00:06:30.445Z,1.88
2023-01-13T00:07:32.798Z,1.73
2023-01-13T00:08:35.715Z,1.90
2023-01-13T00:09:38.043Z,1.35
2023-01-13T00:10:40.297Z,2.00
2023-01-13T00:11:42.696Z,1.80
2023-01-13T00:12:45.053Z,1.52
2023-01-13T00:13:47.565Z,1.67
2023-01-13T00:14:49.849Z,1.70
2023-01-13T00:16:18.989Z,1.40
2023-01-13T00:17:22.702Z,1.42
2023-01-13T00:18:25.339Z,1.85
2023-01-13T00:19:27.783Z,1.48
2023-01-13T00:20:30.121Z,1.23
2023-01-13T00:21:32.383Z,1.52
2023-01-13T00:22:35.376Z,1.60
2023-01-13T00:23:38.181Z,1.30
2023-01-13T00:24:40.505Z,1.77
2023-01-13T00:25:42.826Z,1.45
2023-01-13T00:26:45.103Z,1.70
2023-01-13T00:27:47.364Z,1.50
2023-01-13T00:28:50.567Z,1.35
2023-01-13T00:29:53.023Z,1.30
2023-01-13T00:30:58.579Z,1.50
2023-01-13T00:32:00.850Z,1.33
2023-01-13T00:33:03.153Z,1.70
2023-01-13T00:34:05.445Z,1.35
2023-01-13T00:35:08.211Z,1.30
2023-01-13T00:36:13.819Z,1.20
2023-01-13T00:37:16.965Z,1.48
2023-01-13T00:38:19.237Z,1.30
2023-01-13T00:39:21.596Z,1.33
2023-01-13T00:40:23.859Z,1.10
2023-01-13T00:41:27.303Z,1.58
2023-01-13T00:42:48.455Z,1.38
2023-01-13T00:43:50.840Z,1.63
2023-01-13T00:44:53.254Z,1.20
2023-01-13T00:45:55.647Z,1.20
2023-01-13T00:46:57.861Z,1.45
2023-01-13T00:48:00.114Z,1.05
2023-01-13T00:49:02.477Z,1.30
2023-01-13T00:50:05.340Z,1.08
2023-01-13T00:51:19.974Z,1.13
2023-01-13T00:52:22.290Z,1.02
2023-01-13T00:53:25.797Z,0.90
2023-01-13T00:54:28.098Z,1.08
2023-01-13T00:55:32.403Z,1.27
2023-01-13T00:56:40.259Z,1.33
2023-01-13T00:57:43.217Z,1.38
2023-01-13T00:58:46.221Z,1.33
2023-01-13T00:59:49.654Z,1.27
2023-01-13T01:00:52.226Z,1.10
2023-01-13T01:01:54.966Z,1.20
2023-01-13T01:02:57.341Z,1.27
2023-01-13T01:03:59.666Z,1.15
2023-01-13T01:05:01.976Z,1.30
2023-01-13T01:06:11.046Z,0.90
2023-01-13T01:07:13.299Z,1.20
2023-01-13T01:08:15.632Z,0.90
2023-01-13T01:09:18.318Z,0.80
2023-01-13T01:10:20.574Z,1.13
2023-01-13T01:11:28.122Z,1.17
2023-01-13T01:12:30.392Z,0.65
2023-01-13T01:13:33.045Z,0.90
2023-01-13T01:14:35.325Z,1.00
2023-01-13T01:15:41.121Z,1.23
2023-01-13T01:16:43.368Z,0.90
2023-01-13T01:17:45.743Z,0.93
2023-01-13T01:18:50.209Z,0.80
2023-01-13T01:19:52.504Z,0.95
2023-01-13T01:20:54.776Z,0.95
2023-01-13T01:21:57.059Z,0.77
2023-01-13T01:22:59.591Z,0.80
2023-01-13T01:24:03.645Z,1.40
2023-01-13T01:25:06.399Z,0.98
2023-01-13T01:26:14.839Z,0.98
2023-01-13T01:27:17.132Z,1.00
2023-01-13T01:28:20.534Z,0.82
2023-01-13T01:29:22.903Z,0.88
2023-01-13T01:30:25.198Z,0.70
2023-01-13T01:31:31.496Z,0.88
2023-01-13T01:32:34.791Z,0.60
2023-01-13T01:33:37.190Z,0.85
2023-01-13T01:34:39.618Z,0.80
2023-01-13T01:35:42.749Z,0.80
2023-01-13T01:36:44.998Z,0.93
2023-01-13T01:37:47.241Z,0.80
2023-01-13T01:38:50.199Z,0.77
2023-01-13T01:39:52.476Z,1.02
2023-01-13T01:40:54.933Z,0.68
2023-01-13T01:42:15.847Z,0.63
2023-01-13T01:43:39.262Z,0.88
2023-01-13T01:44:59.486Z,0.90
2023-01-13T01:46:02.128Z,1.02
2023-01-13T01:47:04.702Z,1.10
2023-01-13T01:48:08.357Z,0.70
2023-01-13T01:49:46.196Z,0.85
2023-01-13T01:50:48.675Z,0.60
2023-01-13T01:51:55.112Z,0.80
2023-01-13T01:53:02.575Z,0.82
2023-01-13T01:54:09.524Z,0.80
2023-01-13T01:55:20.282Z,0.70
2023-01-13T01:56:22.743Z,0.88
2023-01-13T01:57:50.132Z,0.73
2023-01-13T01:58:53.418Z,0.90
2023-01-13T01:59:57.492Z,0.95
2023-01-13T02:01:00.300Z,0.80
2023-01-13T02:02:03.110Z,0.90
2023-01-13T02:03:07.224Z,0.47
2023-01-13T02:04:22.530Z,0.80
2023-01-13T02:05:24.952Z,0.85
2023-01-13T02:06:29.658Z,0.70
2023-01-13T02:07:34.335Z,0.63
2023-01-13T02:08:40.098Z,0.60
2023-01-13T02:09:42.656Z,0.70
2023-01-13T02:10:50.606Z,0.50
2023-01-13T02:12:11.605Z,0.70
2023-01-13T02:13:14.222Z,0.70
2023-01-13T02:14:16.745Z,0.60
2023-01-13T02:15:30.213Z,0.77
2023-01-13T02:16:33.237Z,0.60
2023-01-13T02:17:53.251Z,0.63
2023-01-13T02:19:21.245Z,0.75
2023-01-13T02:20:29.698Z,0.90
2023-01-13T02:21:59.495Z,0.50
2023-01-13T02:23:51.376Z,0.77
2023-01-13T02:25:22.015Z,0.60
2023-01-13T02:27:00.676Z,0.57
2023-01-13T02:28:38.341Z,0.50
2023-01-13T02:30:18.706Z,0.50
2023-01-13T02:31:39.962Z,0.70
2023-01-13T02:33:01.198Z,0.43
2023-01-13T02:34:27.471Z,0.50
2023-01-13T02:35:35.627Z,0.55
2023-01-13T02:37:02.252Z,0.50
2023-01-13T02:38:06.048Z,0.70
2023-01-13T02:39:22.676Z,0.85
2023-01-13T02:40:36.866Z,0.60
2023-01-13T02:42:16.329Z,0.55
2023-01-13T02:43:58.160Z,0.70
2023-01-13T02:45:18.613Z,0.55
2023-01-13T02:46:29.802Z,0.50
2023-01-13T02:47:36.669Z,0.70
2023-01-13T02:48:41.954Z,0.50
2023-01-13T02:49:50.901Z,0.50
2023-01-13T02:51:01.236Z,0.30
2023-01-13T02:52:11.575Z,0.60
2023-01-13T02:53:22.963Z,0.50
2023-01-13T02:54:28.380Z,0.45
2023-01-13T02:55:41.476Z,0.40
2023-01-13T02:56:48.275Z,0.40
2023-01-13T02:57:53.002Z,0.60
2023-01-13T02:58:57.814Z,0.47
2023-01-13T03:00:01.118Z,0.70
2023-01-13T03:01:03.577Z,15.38
2023-01-13T03:02:10.532Z,9.07
2023-01-13T03:03:13.729Z,3.30
2023-01-13T03:05:01.994Z,16.30
2023-01-13T03:06:39.008Z,7.07
2023-01-13T03:08:00.752Z,3.65
2023-01-13T03:09:28.027Z,3.42
2023-01-13T03:10:56.917Z,3.40
2023-01-13T03:12:14.807Z,2.60
2023-01-13T03:13:44.618Z,2.13
2023-01-13T03:14:56.880Z,2.17
2023-01-13T03:16:17.653Z,1.75
2023-01-13T03:17:33.045Z,2.10
2023-01-13T03:18:44.134Z,1.70
2023-01-13T03:20:17.992Z,1.60
2023-01-13T03:21:30.491Z,1.40
2023-01-13T03:22:44.541Z,1.50
2023-01-13T03:23:52.158Z,1.23
2023-01-13T03:25:15.179Z,1.60
2023-01-13T03:28:01.157Z,0.90
2023-01-13T03:29:23.443Z,61.70
2023-01-13T03:30:41.080Z,32.60
2023-01-13T03:32:11.178Z,22.30
2023-01-13T03:33:23.778Z,10.40
2023-01-13T03:34:34.320Z,37.22
2023-01-13T03:35:40.375Z,9.52
2023-01-13T03:36:47.898Z,8.60
2023-01-13T03:37:57.098Z,5.97
2023-01-13T03:39:04.636Z,5.00
2023-01-13T03:40:23.372Z,5.38
2023-01-13T03:41:40.757Z,4.65
2023-01-13T03:43:06.034Z,3.10
2023-01-13T03:44:23.060Z,3.13
2023-01-13T03:45:26.407Z,2.83
2023-01-13T03:46:45.604Z,2.83
2023-01-13T03:47:53.963Z,2.47
2023-01-13T03:48:59.657Z,1.90
2023-01-13T03:50:01.915Z,2.50
2023-01-13T03:51:07.454Z,2.00
2023-01-13T03:52:13.497Z,2.10
2023-01-13T03:53:33.519Z,7.53
2023-01-13T03:54:44.324Z,13.18
2023-01-13T03:55:53.991Z,12.00
2023-01-13T03:57:03.823Z,12.32
2023-01-13T03:58:35.136Z,11.80
2023-01-13T03:59:42.492Z,11.30
2023-01-13T04:00:53.617Z,10.75
2023-01-13T04:02:07.752Z,10.40
2023-01-13T04:03:15.128Z,9.35
2023-01-13T04:04:23.662Z,9.45
2023-01-13T04:05:27.506Z,8.52
2023-01-13T04:06:36.142Z,7.95
2023-01-13T04:07:56.386Z,7.38
2023-01-13T04:09:36.096Z,6.97
2023-01-13T04:10:53.089Z,6.28
2023-01-13T04:12:10.827Z,5.57
2023-01-13T04:13:17.961Z,4.90
2023-01-13T04:14:21.611Z,6.07
2023-01-13T04:15:28.000Z,5.82
2023-01-13T04:16:32.332Z,6.25
2023-01-13T04:17:34.727Z,5.30
2023-01-13T04:18:39.092Z,5.75
2023-01-13T04:19:41.400Z,5.22
2023-01-13T04:20:45.749Z,5.65
2023-01-13T04:21:48.044Z,5.72
2023-01-13T04:22:50.321Z,5.72
2023-01-13T04:23:53.823Z,11.75
2023-01-13T04:24:56.142Z,14.27
2023-01-13T04:25:58.972Z,17.67
2023-01-13T04:27:01.374Z,9.45
2023-01-13T04:28:03.906Z,7.82
2023-01-13T04:29:06.221Z,18.58
2023-01-13T04:30:09.249Z,12.57
2023-01-13T04:31:12.200Z,12.02
2023-01-13T04:32:14.504Z,8.77
2023-01-13T04:33:18.345Z,8.27
2023-01-13T04:34:20.706Z,7.00
2023-01-13T04:35:23.108Z,6.90
2023-01-13T04:36:27.531Z,7.05
2023-01-13T04:37:29.833Z,6.70
2023-01-13T04:38:32.128Z,7.45
2023-01-13T04:39:34.431Z,7.07
2023-01-13T04:40:36.826Z,6.57
2023-01-13T04:41:57.785Z,6.60
2023-01-13T04:43:00.092Z,7.35
2023-01-13T04:44:02.421Z,6.53
2023-01-13T04:45:05.210Z,6.78
2023-01-13T04:46:07.722Z,6.78
2023-01-13T04:47:10.043Z,6.25
2023-01-13T04:48:12.573Z,6.90
2023-01-13T04:49:14.911Z,7.38
2023-01-13T04:50:19.752Z,6.68
2023-01-13T04:51:22.004Z,6.22
2023-01-13T04:52:24.283Z,6.13
2023-01-13T04:53:26.573Z,6.47
2023-01-13T04:54:29.029Z,6.38
2023-01-13T04:55:32.110Z,7.22
2023-01-13T04:56:34.537Z,6.43
2023-01-13T04:57:37.668Z,6.53
2023-01-13T04:58:40.020Z,5.68
2023-01-13T04:59:42.383Z,6.38
2023-01-13T05:00:44.712Z,5.80
2023-01-13T05:01:47.275Z,5.90
2023-01-13T05:02:51.244Z,6.07
2023-01-13T05:03:53.536Z,5.68
2023-01-13T05:04:55.943Z,6.28
2023-01-13T05:05:58.291Z,5.10
2023-01-13T05:07:00.658Z,5.43
2023-01-13T05:08:03.116Z,5.55
2023-01-13T05:09:05.426Z,5.40
2023-01-13T05:10:08.315Z,5.22
2023-01-13T05:11:29.089Z,4.57
2023-01-13T05:13:06.823Z,5.40
2023-01-13T05:14:28.113Z,4.88
2023-01-13T05:15:49.410Z,5.10
2023-01-13T05:17:00.639Z,4.93
2023-01-13T05:18:03.502Z,4.55
2023-01-13T05:19:05.932Z,10.63
2023-01-13T05:20:09.726Z,11.35
2023-01-13T05:21:31.960Z,7.25
2023-01-13T05:22:52.952Z,6.00
2023-01-13T05:24:13.991Z,6.38
2023-01-13T05:25:22.516Z,6.13
2023-01-13T05:26:24.849Z,5.47
2023-01-13T05:27:27.754Z,4.97
2023-01-13T05:28:33.767Z,5.97
2023-01-13T05:29:36.090Z,5.35
2023-01-13T05:30:43.546Z,5.25
2023-01-13T05:31:45.921Z,5.82
2023-01-13T05:32:48.670Z,5.30
2023-01-13T05:33:50.944Z,5.18
2023-01-13T05:34:53.544Z,5.38
2023-01-13T05:35:55.868Z,5.85
2023-01-13T05:36:58.158Z,5.43
2023-01-13T05:38:00.499Z,4.90
2023-01-13T05:39:02.839Z,4.45
2023-01-13T05:40:24.630Z,5.47
2023-01-13T05:41:45.863Z,5.90
2023-01-13T05:43:06.929Z,5.15
2023-01-13T05:44:09.495Z,4.75
2023-01-13T05:45:12.427Z,5.05
2023-01-13T05:46:17.268Z,5.28
2023-01-13T05:47:19.669Z,5.25
2023-01-13T05:48:24.304Z,5.50
2023-01-13T05:49:26.629Z,5.30
2023-01-13T05:50:28.981Z,5.53
2023-01-13T05:51:31.396Z,5.15
2023-01-13T05:52:33.708Z,4.72
2023-01-13T05:53:36.544Z,5.38
2023-01-13T05:54:41.064Z,5.18
2023-01-13T05:55:44.821Z,5.22
2023-01-13T05:56:47.308Z,4.85
2023-01-13T05:57:49.588Z,4.30
2023-01-13T05:58:51.861Z,4.85
2023-01-13T05:59:54.175Z,5.75
2023-01-13T06:01:01.382Z,5.03
2023-01-13T06:02:03.756Z,4.28
2023-01-13T06:03:06.343Z,4.35
2023-01-13T06:04:08.807Z,47.00
2023-01-13T06:05:11.133Z,37.25
2023-01-13T06:06:13.414Z,34.65
2023-01-13T06:07:15.869Z,30.40
2023-01-13T06:08:19.019Z,20.13
2023-01-13T06:09:22.625Z,14.48
2023-01-13T06:10:26.095Z,14.23
2023-01-13T06:11:28.395Z,12.18
2023-01-13T06:12:30.710Z,11.30
2023-01-13T06:13:33.081Z,11.20
2023-01-13T06:14:41.134Z,10.65
2023-01-13T06:15:43.586Z,10.77
2023-01-13T06:16:46.382Z,10.07
2023-01-13T06:17:48.786Z,9.07
2023-01-13T06:18:51.210Z,9.55
2023-01-13T06:19:53.716Z,9.88
2023-01-13T06:20:56.209Z,8.18
2023-01-13T06:21:58.764Z,7.28
2023-01-13T06:23:01.323Z,7.00
2023-01-13T06:24:03.811Z,5.32
2023-01-13T06:25:14.471Z,8.00
2023-01-13T06:26:20.619Z,7.93
2023-01-13T06:27:23.356Z,7.40
2023-01-13T06:28:25.829Z,7.28
2023-01-13T06:29:28.144Z,7.35
2023-01-13T06:30:38.540Z,7.35
2023-01-13T06:31:41.125Z,7.03
2023-01-13T06:32:47.751Z,7.25
2023-01-13T06:33:55.635Z,7.32
2023-01-13T06:35:05.720Z,7.97
2023-01-13T06:36:16.522Z,7.45
2023-01-13T06:37:25.215Z,7.68
2023-01-13T06:38:30.167Z,6.90
2023-01-13T06:39:35.733Z,7.88
2023-01-13T06:40:38.183Z,7.70
2023-01-13T06:41:59.299Z,7.43
2023-01-13T06:43:17.500Z,7.85
2023-01-13T06:44:21.013Z,7.25
2023-01-13T06:45:25.303Z,7.22
2023-01-13T06:46:27.613Z,7.80
2023-01-13T06:47:29.940Z,6.65
2023-01-13T06:48:35.228Z,7.32
2023-01-13T06:49:37.690Z,8.00
2023-01-13T06:50:40.175Z,6.15
2023-01-13T06:51:42.509Z,7.18
2023-01-13T06:52:45.135Z,7.63
2023-01-13T06:53:47.412Z,7.47
2023-01-13T06:54:49.767Z,6.97
2023-01-13T06:55:52.073Z,7.38
2023-01-13T06:56:54.388Z,7.40
2023-01-13T06:57:57.992Z,6.75
2023-01-13T06:59:00.349Z,6.93
2023-01-13T07:00:03.154Z,6.53
2023-01-13T07:01:06.014Z,6.38
2023-01-13T07:02:08.539Z,7.05
2023-01-13T07:03:13.405Z,6.95
2023-01-13T07:04:15.944Z,6.63
2023-01-13T07:05:19.632Z,6.50
2023-01-13T07:06:21.999Z,6.55
2023-01-13T07:07:24.510Z,6.65
2023-01-13T07:08:26.897Z,6.65
2023-01-13T07:09:29.256Z,6.85
2023-01-13T07:10:32.975Z,6.70
2023-01-13T07:11:35.318Z,6.28
2023-01-13T07:12:58.910Z,6.05
2023-01-13T07:14:20.218Z,6.00
2023-01-13T07:15:23.653Z,6.95
2023-01-13T07:16:28.188Z,6.30
2023-01-13T07:17:30.909Z,6.20
2023-01-13T07:18:34.927Z,6.65
2023-01-13T07:19:37.713Z,6.45
2023-01-13T07:20:40.349Z,6.32
2023-01-13T07:21:43.801Z,5.93
2023-01-13T07:22:46.358Z,5.88
2023-01-13T07:23:49.049Z,6.30
2023-01-13T07:24:51.568Z,5.80
2023-01-13T07:25:58.789Z,6.18
2023-01-13T07:27:01.566Z,6.47
2023-01-13T07:28:04.180Z,5.75
2023-01-13T07:29:06.962Z,6.88
2023-01-13T07:30:10.388Z,6.80
2023-01-13T07:31:20.825Z,6.40
2023-01-13T07:32:23.555Z,6.03
2023-01-13T07:33:26.503Z,6.25
2023-01-13T07:34:28.915Z,6.47
2023-01-13T07:35:31.219Z,6.18
2023-01-13T07:36:33.564Z,5.60
2023-01-13T07:37:38.153Z,6.75
2023-01-13T07:38:41.198Z,5.90
2023-01-13T07:39:45.146Z,5.22
2023-01-13T07:40:47.456Z,6.05
2023-01-13T07:42:08.389Z,5.43
2023-01-13T07:43:31.042Z,2.90
2023-01-13T07:44:33.713Z,2.30
2023-01-13T07:45:36.391Z,2.35
2023-01-13T07:46:39.469Z,3.38
2023-01-13T07:47:42.150Z,2.38
2023-01-13T07:48:46.480Z,2.90
2023-01-13T07:49:49.588Z,2.75
2023-01-13T07:50:52.145Z,2.65
2023-01-13T07:51:54.689Z,2.80
2023-01-13T07:53:00.264Z,2.95
2023-01-13T07:54:03.201Z,2.83
2023-01-13T07:55:06.285Z,3.47
2023-01-13T07:56:09.466Z,3.70
2023-01-13T07:57:12.079Z,3.60
2023-01-13T07:58:14.499Z,3.40
2023-01-13T07:59:16.849Z,3.65
2023-01-13T08:00:19.720Z,3.90
2023-01-13T08:01:23.060Z,4.40
2023-01-13T08:02:25.574Z,3.97
2023-01-13T08:03:28.093Z,4.00
2023-01-13T08:04:30.428Z,4.45
2023-01-13T08:05:35.308Z,3.25
2023-01-13T08:06:39.779Z,3.40
2023-01-13T08:07:42.155Z,3.17
2023-01-13T08:08:44.470Z,149.05
2023-01-13T08:09:46.783Z,53.28
2023-01-13T08:10:49.163Z,18.25
2023-01-13T08:12:14.360Z,45.78
2023-01-13T08:13:20.111Z,26.90
2023-01-13T08:14:22.638Z,24.35
2023-01-13T08:15:24.956Z,21.63
2023-01-13T08:16:27.378Z,18.63
2023-01-13T08:17:29.839Z,20.02
2023-01-13T08:18:33.041Z,18.13
2023-01-13T08:19:35.704Z,18.90
2023-01-13T08:20:37.992Z,15.80
2023-01-13T08:21:40.304Z,15.95
2023-01-13T08:22:42.641Z,16.50
2023-01-13T08:23:45.916Z,16.27
2023-01-13T08:24:48.239Z,15.30
2023-01-13T08:25:50.553Z,14.73
2023-01-13T08:26:52.834Z,13.13
2023-01-13T08:27:56.122Z,11.93
2023-01-13T08:28:58.425Z,11.65
2023-01-13T08:30:00.721Z,11.48
2023-01-13T08:31:06.148Z,13.23
2023-01-13T08:32:08.537Z,12.13
2023-01-13T08:33:12.853Z,11.52
2023-01-13T08:34:15.150Z,11.95
2023-01-13T08:35:18.457Z,12.27
2023-01-13T08:36:20.774Z,10.68
2023-01-13T08:37:23.171Z,11.30
2023-01-13T08:38:25.635Z,10.82
2023-01-13T08:39:28.130Z,11.13
2023-01-13T08:40:30.520Z,11.50
2023-01-13T08:41:51.457Z,12.50
2023-01-13T08:42:55.843Z,12.93
2023-01-13T08:43:58.175Z,8.75
2023-01-13T08:45:00.572Z,9.25
2023-01-13T08:46:04.849Z,9.65
2023-01-13T08:47:07.469Z,13.63
2023-01-13T08:48:09.743Z,13.13
2023-01-13T08:49:12.051Z,27.70
2023-01-13T08:50:15.046Z,42.47
2023-01-13T08:51:17.355Z,50.28
2023-01-13T08:52:19.774Z,51.72
2023-01-13T08:53:22.076Z,68.18
2023-01-13T08:54:24.407Z,82.07
2023-01-13T08:55:26.880Z,76.63
2023-01-13T08:56:30.106Z,64.47
2023-01-13T08:57:32.527Z,60.63
2023-01-13T08:58:34.865Z,65.70
2023-01-13T08:59:39.016Z,71.93
2023-01-13T09:00:42.196Z,68.22
2023-01-13T09:01:45.351Z,67.53
2023-01-13T09:02:47.771Z,65.55
2023-01-13T09:03:50.149Z,55.17
2023-01-13T09:04:52.846Z,54.20
2023-01-13T09:05:55.099Z,53.63
2023-01-13T09:06:57.810Z,24.35
2023-01-13T09:08:00.149Z,18.25
2023-01-13T09:09:02.554Z,15.10
2023-01-13T09:10:06.699Z,14.50
2023-01-13T09:11:37.094Z,14.10
2023-01-13T09:12:58.263Z,10.70
2023-01-13T09:14:02.472Z,12.20
2023-01-13T09:15:06.412Z,10.00
2023-01-13T09:16:08.719Z,11.57
2023-01-13T09:17:11.327Z,8.45
2023-01-13T09:18:13.797Z,8.45
2023-01-13T09:19:16.335Z,10.35
2023-01-13T09:20:18.886Z,12.68
2023-01-13T09:21:22.316Z,10.85
2023-01-13T09:22:27.073Z,11.30
2023-01-13T09:23:29.400Z,12.05
2023-01-13T09:24:32.033Z,11.10
2023-01-13T09:25:36.612Z,9.90
2023-01-13T09:26:39.035Z,10.40
2023-01-13T09:27:41.360Z,12.25
2023-01-13T09:28:43.606Z,12.23
2023-01-13T09:29:45.902Z,8.48
2023-01-13T09:30:48.273Z,8.23
2023-01-13T09:31:50.695Z,8.60
2023-01-13T09:33:13.029Z,9.15
2023-01-13T09:34:36.259Z,10.25
2023-01-13T09:35:38.535Z,12.90
2023-01-13T09:36:40.964Z,12.95
2023-01-13T09:37:43.516Z,18.85
2023-01-13T09:38:46.407Z,16.67
2023-01-13T09:39:48.880Z,14.57
2023-01-13T09:40:51.211Z,15.45
2023-01-13T09:42:17.323Z,15.60
2023-01-13T09:43:55.192Z,14.55
2023-01-13T09:45:05.422Z,15.38
2023-01-13T09:46:36.595Z,14.30
2023-01-13T09:47:56.564Z,14.38
2023-01-13T09:48:59.829Z,15.05
2023-01-13T09:50:14.044Z,15.02
2023-01-13T09:51:30.498Z,16.63
2023-01-13T09:52:32.956Z,14.90
2023-01-13T09:53:43.401Z,17.70
2023-01-13T09:55:00.481Z,17.07
2023-01-13T09:56:03.360Z,21.10
2023-01-13T09:57:11.417Z,19.85
2023-01-13T09:58:18.592Z,19.40
2023-01-13T09:59:21.571Z,19.25
2023-01-13T10:00:37.526Z,25.83
2023-01-13T10:02:03.005Z,45.03
2023-01-13T10:03:22.563Z,25.30
2023-01-13T10:04:25.484Z,26.02
2023-01-13T10:05:38.156Z,21.83
2023-01-13T10:06:46.063Z,20.25
2023-01-13T10:08:02.162Z,17.05
2023-01-13T10:09:05.667Z,15.68
2023-01-13T10:10:17.951Z,16.02
2023-01-13T10:11:42.797Z,17.30
2023-01-13T10:13:05.983Z,16.05
2023-01-13T10:14:19.645Z,16.98
2023-01-13T10:15:25.863Z,16.70
2023-01-13T10:16:54.053Z,18.33
2023-01-13T10:18:13.647Z,18.58
2023-01-13T10:19:20.423Z,18.35
2023-01-13T10:20:47.585Z,18.20
2023-01-13T10:21:52.956Z,18.50
2023-01-13T10:23:34.538Z,16.40
2023-01-13T10:25:09.637Z,17.02
2023-01-13T10:26:48.438Z,16.00
2023-01-13T10:27:53.397Z,17.05
2023-01-13T10:28:56.989Z,15.32
2023-01-13T10:29:59.426Z,15.82
2023-01-13T10:31:09.324Z,16.23
2023-01-13T10:32:11.657Z,18.42
2023-01-13T10:33:17.371Z,16.48
2023-01-13T10:34:21.188Z,17.60
2023-01-13T10:35:52.457Z,18.30
2023-01-13T10:37:08.403Z,18.75
2023-01-13T10:38:41.681Z,17.92
2023-01-13T10:39:48.280Z,19.45
2023-01-13T10:41:13.788Z,20.33
2023-01-13T10:42:22.758Z,20.85
2023-01-13T10:43:26.210Z,21.83
2023-01-13T10:44:28.695Z,16.45
2023-01-13T10:45:30.973Z,18.88
2023-01-13T10:46:35.425Z,18.45
2023-01-13T10:47:37.836Z,22.45
2023-01-13T10:48:51.113Z,22.52
2023-01-13T10:50:19.581Z,20.20
2023-01-13T10:51:21.911Z,20.52
2023-01-13T10:52:30.953Z,21.60
2023-01-13T10:53:44.245Z,23.05
2023-01-13T10:54:54.653Z,22.20
2023-01-13T10:56:03.865Z,18.50
2023-01-13T10:57:20.758Z,21.33
2023-01-13T10:58:26.215Z,21.50
2023-01-13T10:59:28.726Z,21.30
2023-01-13T11:00:33.242Z,20.23
2023-01-13T11:01:35.733Z,20.55
2023-01-13T11:02:39.692Z,20.15
2023-01-13T11:03:44.343Z,22.13
2023-01-13T11:05:03.132Z,19.10
2023-01-13T11:06:07.314Z,20.75
2023-01-13T11:07:32.663Z,21.25
2023-01-13T11:08:42.955Z,19.02
2023-01-13T11:09:45.392Z,19.42
2023-01-13T11:10:51.395Z,17.98
2023-01-13T11:11:57.360Z,19.35
2023-01-13T11:13:25.532Z,19.05
2023-01-13T11:14:43.397Z,19.90
2023-01-13T11:16:13.143Z,14.98
2023-01-13T11:17:27.882Z,18.05
2023-01-13T11:19:02.395Z,18.30
2023-01-13T11:20:44.720Z,17.85
2023-01-13T11:22:59.674Z,17.50
2023-01-13T11:24:12.360Z,18.90
2023-01-13T11:25:42.733Z,17.27
2023-01-13T11:27:03.984Z,17.70
2023-01-13T11:28:17.675Z,18.80
2023-01-13T11:29:43.425Z,16.88
2023-01-13T11:30:56.972Z,16.73
2023-01-13T11:32:19.987Z,17.33
2023-01-13T11:33:47.716Z,15.77
2023-01-13T11:34:55.839Z,18.23
2023-01-13T11:36:06.859Z,15.90
2023-01-13T11:37:24.916Z,17.83
2023-01-13T11:38:53.852Z,16.92
2023-01-13T11:40:05.715Z,16.95
2023-01-13T11:41:35.920Z,17.27
2023-01-13T11:42:54.486Z,17.52
2023-01-13T11:44:21.401Z,16.38
2023-01-13T11:45:45.396Z,17.40
2023-01-13T11:46:50.246Z,16.92
2023-01-13T11:47:57.232Z,17.88
2023-01-13T11:49:00.780Z,17.83
2023-01-13T11:50:04.521Z,17.17
2023-01-13T11:51:27.996Z,17.30
2023-01-13T11:52:49.778Z,17.50
2023-01-13T11:54:10.813Z,17.90
2023-01-13T11:55:31.383Z,18.13
2023-01-13T11:56:55.129Z,17.05
2023-01-13T11:58:26.537Z,17.73
2023-01-13T11:59:34.969Z,14.45
2023-01-13T12:01:02.765Z,15.35
2023-01-13T12:02:38.219Z,15.65
2023-01-13T12:03:46.175Z,17.88
2023-01-13T12:04:51.264Z,25.95
2023-01-13T12:06:27.008Z,33.35
2023-01-13T12:08:10.919Z,21.50
2023-01-13T12:09:33.179Z,21.38
2023-01-13T12:10:42.298Z,24.70
2023-01-13T12:12:20.570Z,22.33
2023-01-13T12:13:50.065Z,21.42
2023-01-13T12:15:29.846Z,21.10
2023-01-13T12:16:33.309Z,21.05
2023-01-13T12:17:43.710Z,21.05
2023-01-13T12:19:07.476Z,21.70
2023-01-13T12:20:34.398Z,20.05
2023-01-13T12:21:38.972Z,20.08
2023-01-13T12:22:42.935Z,20.55
2023-01-13T12:24:03.951Z,20.25
2023-01-13T12:25:19.579Z,20.58
2023-01-13T12:26:22.755Z,20.60
2023-01-13T12:27:41.601Z,19.83
2023-01-13T12:29:04.709Z,19.60
2023-01-13T12:30:37.155Z,19.52
2023-01-13T12:31:41.282Z,19.58
2023-01-13T12:32:45.175Z,19.75
2023-01-13T12:34:12.950Z,19.45
2023-01-13T12:35:56.223Z,18.50
2023-01-13T12:37:26.559Z,18.17
2023-01-13T12:38:41.748Z,18.05
2023-01-13T12:40:38.671Z,18.85
2023-01-13T12:42:11.006Z,17.75
2023-01-13T12:43:42.705Z,17.02
2023-01-13T12:45:06.561Z,17.48
2023-01-13T12:46:23.518Z,18.40
2023-01-13T12:47:40.040Z,17.73
2023-01-13T12:48:54.889Z,18.67
2023-01-13T12:50:23.581Z,17.70
2023-01-13T12:51:36.449Z,16.60
2023-01-13T12:52:45.395Z,18.30
2023-01-13T12:53:48.102Z,17.02
2023-01-13T12:54:50.530Z,17.83
2023-01-13T12:55:53.086Z,17.45
2023-01-13T12:56:55.471Z,17.23
2023-01-13T12:58:06.755Z,17.75
2023-01-13T12:59:20.577Z,18.17
2023-01-13T13:00:23.509Z,16.77
2023-01-13T13:01:45.633Z,18.40
2023-01-13T13:03:11.028Z,17.20
2023-01-13T13:04:18.501Z,17.90
2023-01-13T13:05:23.605Z,16.85
2023-01-13T13:06:30.920Z,16.50
2023-01-13T13:07:45.284Z,16.90
2023-01-13T13:09:03.846Z,29.70
2023-01-13T13:10:42.532Z,22.55
2023-01-13T13:12:15.716Z,9.85
2023-01-13T13:13:49.111Z,23.30
2023-01-13T13:14:51.430Z,19.15
2023-01-13T13:16:37.378Z,21.48
2023-01-13T13:17:40.447Z,22.35
2023-01-13T13:18:42.719Z,22.20
2023-01-13T13:19:48.408Z,22.05
2023-01-13T13:20:54.171Z,22.90
2023-01-13T13:22:19.306Z,21.75
2023-01-13T13:23:35.396Z,20.48
2023-01-13T13:24:51.075Z,19.88
2023-01-13T13:26:07.217Z,20.50
2023-01-13T13:27:25.093Z,19.75
2023-01-13T13:28:33.184Z,20.08
2023-01-13T13:29:55.362Z,19.92
2023-01-13T13:31:19.702Z,18.90
2023-01-13T13:32:50.499Z,19.50
2023-01-13T13:34:11.677Z,18.08
2023-01-13T13:36:00.138Z,18.45
2023-01-13T13:37:26.259Z,18.25
2023-01-13T13:39:21.152Z,17.65
2023-01-13T13:40:43.631Z,17.88
2023-01-13T13:42:06.743Z,17.67
2023-01-13T13:43:34.149Z,17.85
2023-01-13T13:44:58.565Z,18.30
2023-01-13T13:46:19.795Z,16.45
2023-01-13T13:47:22.244Z,17.77
2023-01-13T13:48:30.969Z,16.38
2023-01-13T13:49:41.384Z,17.35
2023-01-13T13:50:49.430Z,18.10
2023-01-13T13:52:06.131Z,17.77
2023-01-13T13:53:09.252Z,18.27
2023-01-13T13:54:19.784Z,17.75
2023-01-13T13:55:26.321Z,17.60
2023-01-13T13:56:40.587Z,17.80
2023-01-13T13:57:49.599Z,16.55
2023-01-13T13:58:53.106Z,18.02
2023-01-13T13:59:58.913Z,17.55
2023-01-13T14:01:02.041Z,17.63
2023-01-13T14:02:15.677Z,15.77
2023-01-13T14:03:32.045Z,17.15
2023-01-13T14:04:36.916Z,16.77
2023-01-13T14:05:52.080Z,18.13
2023-01-13T14:06:59.629Z,21.60
2023-01-13T14:08:09.516Z,26.05
2023-01-13T14:09:18.091Z,18.13
2023-01-13T14:10:28.552Z,19.15
2023-01-13T14:11:33.120Z,15.25
2023-01-13T14:12:38.113Z,14.48
2023-01-13T14:13:40.860Z,15.68
2023-01-13T14:14:44.003Z,14.23
2023-01-13T14:15:49.181Z,15.23
2023-01-13T14:16:51.798Z,15.85
2023-01-13T14:17:54.716Z,16.15
2023-01-13T14:18:57.262Z,16.58
2023-01-13T14:20:04.822Z,16.45
2023-01-13T14:21:22.388Z,17.13
2023-01-13T14:22:28.083Z,15.45
2023-01-13T14:23:33.632Z,16.27
2023-01-13T14:24:46.653Z,16.83
2023-01-13T14:25:51.005Z,15.93
2023-01-13T14:27:08.090Z,16.52
2023-01-13T14:28:13.219Z,16.02
2023-01-13T14:29:23.273Z,15.75
2023-01-13T14:30:27.961Z,16.30
2023-01-13T14:31:31.379Z,17.67
2023-01-13T14:32:36.589Z,15.98
2023-01-13T14:33:48.692Z,16.17
2023-01-13T14:34:52.647Z,16.38
2023-01-13T14:36:14.826Z,15.80
2023-01-13T14:37:31.847Z,14.55
2023-01-13T14:38:34.293Z,14.15
2023-01-13T14:39:41.375Z,14.43
2023-01-13T14:40:46.233Z,15.70
2023-01-13T14:41:50.560Z,14.40
2023-01-13T14:43:00.577Z,14.25
2023-01-13T14:44:26.956Z,13.93
2023-01-13T14:45:30.423Z,13.18
2023-01-13T14:46:40.879Z,13.95
2023-01-13T14:47:54.044Z,15.90
2023-01-13T14:49:02.779Z,14.60
2023-01-13T14:50:06.886Z,14.60
2023-01-13T14:51:12.988Z,14.35
2023-01-13T14:52:20.528Z,14.77
2023-01-13T14:53:38.611Z,15.60
2023-01-13T14:54:48.709Z,14.48
2023-01-13T14:55:51.103Z,15.10
2023-01-13T14:57:12.348Z,14.00
2023-01-13T14:58:25.303Z,13.05
2023-01-13T14:59:34.622Z,13.45
2023-01-13T15:00:37.209Z,14.18
2023-01-13T15:01:39.871Z,14.73
2023-01-13T15:02:58.142Z,15.13
2023-01-13T15:04:38.071Z,13.50
2023-01-13T15:05:42.630Z,14.70
2023-01-13T15:06:59.624Z,12.35
2023-01-13T15:08:05.167Z,13.93
2023-01-13T15:09:23.115Z,14.02
2023-01-13T15:10:29.657Z,14.20
2023-01-13T15:11:33.523Z,13.15
2023-01-13T15:12:40.718Z,12.70